Time;durP1;ratioP1;P1;durP2;ratioP2;P2;SDS_P1;SDS_P2;PMS_P1;PMS_P2;Temp;Humidity;BMP_temperature;BMP_pressure;BME280_temperature;BME280_humidity;BME280_pressure;Samples;Min_cycle;Max_cycle;Signal;HPM_P1;HPM_P2
2023/12/31 06:00:42;;;;;;;4.17;3.77;;;;;;;;;;1749287;28;20909;-77
2023/12/31 06:01:33;;;;;;;4.35;3.67;;;;;;;;;;1743185;28;20738;-77
2023/12/31 06:02:24;;;;;;;4.50;4.10;;;;;;;;;;1742816;28;20219;-76
2023/12/31 06:03:16;;;;;;;3.60;3.30;;;;;;;;;;1746897;28;20206;-77
2023/12/31 06:04:07;;;;;;;4.97;3.85;;;;;;;;;;1749652;28;20206;-77
2023/12/31 06:05:00;;;;;;;4.68;4.05;;;;;;;;;;1746560;28;20297;-77
2023/12/31 06:05:51;;;;;;;3.83;3.47;;;;;;;;;;1743021;28;20256;-77
2023/12/31 06:06:43;;;;;;;4.00;3.67;;;;;;;;;;1743922;28;20560;-77
2023/12/31 06:07:34;;;;;;;4.32;3.97;;;;;;;;;;1749191;28;20202;-77
2023/12/31 06:08:25;;;;;;;5.07;3.83;;;;;;;;;;1742047;28;20195;-77
2023/12/31 06:09:17;;;;;;;4.15;3.85;;;;;;;;;;1742404;28;20210;-77
2023/12/31 06:10:08;;;;;;;4.43;4.03;;;;;;;;;;1742721;28;20214;-77
2023/12/31 06:10:59;;;;;;;3.88;3.53;;;;;;;;;;1742306;28;20286;-77
2023/12/31 06:11:51;;;;;;;3.67;3.38;;;;;;;;;;1742849;28;20199;-76
2023/12/31 06:12:43;;;;;;;4.20;3.90;;;;;;;;;;1742414;28;20206;-77
2023/12/31 06:13:35;;;;;;;4.10;3.70;;;;;;;;;;1742592;28;20199;-77
2023/12/31 06:14:26;;;;;;;4.45;4.03;;;;;;;;;;1742643;28;20207;-77
2023/12/31 06:15:17;;;;;;;4.70;3.80;;;;;;;;;;1742310;28;20249;-77
2023/12/31 06:16:10;;;;;;;4.57;4.18;;;;;;;;;;1742604;28;20567;-77
2023/12/31 06:17:02;;;;;;;3.85;3.55;;;;;;;;;;1742774;28;20203;-77
2023/12/31 06:17:54;;;;;;;4.60;4.20;;;;;;;;;;1742712;28;20664;-77
2023/12/31 06:18:45;;;;;;;4.00;3.60;;;;;;;;;;1742028;28;20559;-77
2023/12/31 06:19:37;;;;;;;4.80;4.30;;;;;;;;;;1742416;28;20199;-77
2023/12/31 06:20:28;;;;;;;3.92;3.63;;;;;;;;;;1742261;28;20214;-77
2023/12/31 06:21:19;;;;;;;4.28;3.60;;;;;;;;;;1742090;28;20594;-76
2023/12/31 06:22:11;;;;;;;3.40;3.10;;;;;;;;;;1741857;28;20207;-77
2023/12/31 06:23:05;;;;;;;3.63;3.25;;;;;;;;;;1742219;28;20668;-76
2023/12/31 06:23:57;;;;;;;4.68;4.13;;;;;;;;;;1742176;28;20293;-77
2023/12/31 06:24:48;;;;;;;4.18;3.88;;;;;;;;;;1742178;28;20207;-77
2023/12/31 06:25:40;;;;;;;4.72;4.28;;;;;;;;;;1742080;28;20290;-76
2023/12/31 06:26:31;;;;;;;5.13;4.63;;;;;;;;;;1742118;28;20210;-77
2023/12/31 06:27:24;;;;;;;4.90;4.07;;;;;;;;;;1742323;28;20195;-77
2023/12/31 06:28:15;;;;;;;4.25;3.95;;;;;;;;;;1741948;28;20214;-76
2023/12/31 06:29:07;;;;;;;4.72;4.18;;;;;;;;;;1741923;28;20203;-77
2023/12/31 06:29:58;;;;;;;3.92;3.58;;;;;;;;;;1742196;28;20215;-78
2023/12/31 06:30:49;;;;;;;4.95;4.45;;;;;;;;;;1742014;28;20252;-76
2023/12/31 06:31:43;;;;;;;4.78;4.38;;;;;;;;;;1742155;28;20199;-77
2023/12/31 06:32:34;;;;;;;4.10;3.80;;;;;;;;;;1742407;28;20686;-77
2023/12/31 06:33:26;;;;;;;3.80;3.50;;;;;;;;;;1742108;28;20690;-76
2023/12/31 06:34:18;;;;;;;3.70;3.40;;;;;;;;;;1742270;28;20572;-76
2023/12/31 06:35:09;;;;;;;4.95;4.10;;;;;;;;;;1742154;28;20207;-76
2023/12/31 06:36:00;;;;;;;4.78;4.35;;;;;;;;;;1741896;28;20191;-75
2023/12/31 06:36:52;;;;;;;4.57;4.15;;;;;;;;;;1741841;28;20245;-77
2023/12/31 06:37:43;;;;;;;4.43;4.03;;;;;;;;;;1741879;28;20229;-77
2023/12/31 06:38:35;;;;;;;4.90;4.40;;;;;;;;;;1741852;28;20249;-77
2023/12/31 06:39:26;;;;;;;4.45;4.05;;;;;;;;;;1742105;28;20209;-77
2023/12/31 06:40:18;;;;;;;3.63;3.33;;;;;;;;;;1742215;28;20199;-76
2023/12/31 06:41:10;;;;;;;4.82;4.32;;;;;;;;;;1742106;28;20199;-77
2023/12/31 06:42:01;;;;;;;7.60;6.00;;;;;;;;;;1742228;28;20289;-76
2023/12/31 06:42:52;;;;;;;11.65;7.63;;;;;;;;;;1743473;28;20230;-77
2023/12/31 06:43:44;;;;;;;15.73;9.43;;;;;;;;;;1749031;28;20565;-76
2023/12/31 06:44:35;;;;;;;17.92;10.23;;;;;;;;;;1749015;28;20210;-76
2023/12/31 06:45:27;;;;;;;13.27;8.80;;;;;;;;;;1742114;28;20581;-77
2023/12/31 06:46:19;;;;;;;15.15;9.18;;;;;;;;;;1741497;28;20273;-77
2023/12/31 06:47:11;;;;;;;12.55;7.40;;;;;;;;;;1747108;28;20209;-76
2023/12/31 06:48:02;;;;;;;14.35;8.75;;;;;;;;;;1749116;28;20199;-77
2023/12/31 06:48:55;;;;;;;10.43;7.30;;;;;;;;;;1744741;28;20210;-76
2023/12/31 06:49:47;;;;;;;8.80;6.22;;;;;;;;;;1743207;28;20727;-76
2023/12/31 06:50:38;;;;;;;6.93;5.20;;;;;;;;;;1744055;28;20214;-77
2023/12/31 06:51:30;;;;;;;4.25;3.75;;;;;;;;;;1741918;28;20219;-77
2023/12/31 06:52:21;;;;;;;4.25;3.50;;;;;;;;;;1742763;28;20203;-76
2023/12/31 06:53:12;;;;;;;3.80;3.40;;;;;;;;;;1742005;28;20205;-77
2023/12/31 06:54:04;;;;;;;3.60;3.20;;;;;;;;;;1741819;28;20293;-76
2023/12/31 06:54:55;;;;;;;3.58;3.25;;;;;;;;;;1741922;28;20207;-76
2023/12/31 06:55:47;;;;;;;3.55;3.25;;;;;;;;;;1741960;28;20225;-77
2023/12/31 06:56:38;;;;;;;3.47;3.17;;;;;;;;;;1745279;28;21576;-77
2023/12/31 06:57:30;;;;;;;3.85;3.50;;;;;;;;;;1749040;28;20720;-77
2023/12/31 06:58:22;;;;;;;6.47;4.60;;;;;;;;;;1745592;28;20203;-75
2023/12/31 06:59:13;;;;;;;6.50;4.55;;;;;;;;;;1742119;28;20203;-77
2023/12/31 07:00:07;;;;;;;6.10;4.60;;;;;;;;;;1741972;28;20241;-77
2023/12/31 07:00:58;;;;;;;6.47;5.03;;;;;;;;;;1741810;28;20203;-77
2023/12/31 07:01:50;;;;;;;7.25;5.50;;;;;;;;;;1742456;28;20659;-77
2023/12/31 07:02:43;;;;;;;7.22;5.97;;;;;;;;;;1748994;28;20574;-77
2023/12/31 07:03:34;;;;;;;7.95;6.60;;;;;;;;;;1748893;28;20202;-77
2023/12/31 07:04:26;;;;;;;6.35;5.55;;;;;;;;;;1742801;28;20215;-76
2023/12/31 07:05:18;;;;;;;6.90;5.90;;;;;;;;;;1742375;28;20245;-77
2023/12/31 07:06:09;;;;;;;6.88;5.80;;;;;;;;;;1746432;28;20213;-77
2023/12/31 07:07:00;;;;;;;9.52;7.47;;;;;;;;;;1742205;28;20313;-77
2023/12/31 07:07:52;;;;;;;7.90;7.10;;;;;;;;;;1741935;28;20184;-77
2023/12/31 07:08:43;;;;;;;8.35;6.20;;;;;;;;;;1742166;28;20195;-76
2023/12/31 07:09:34;;;;;;;6.45;5.85;;;;;;;;;;1743382;28;20203;-77
2023/12/31 07:10:26;;;;;;;6.88;6.18;;;;;;;;;;1749188;28;20198;-76
2023/12/31 07:11:18;;;;;;;8.57;5.70;;;;;;;;;;1749159;28;20222;-76
2023/12/31 07:12:09;;;;;;;7.47;6.07;;;;;;;;;;1742549;28;20612;-78
2023/12/31 07:13:01;;;;;;;6.25;5.28;;;;;;;;;;1742289;28;20191;-77
2023/12/31 07:13:52;;;;;;;6.25;5.30;;;;;;;;;;1747557;28;20218;-77
2023/12/31 07:14:44;;;;;;;6.68;5.35;;;;;;;;;;1749074;28;20606;-77
2023/12/31 07:15:35;;;;;;;4.75;4.20;;;;;;;;;;1745201;28;20207;-78
2023/12/31 07:16:27;;;;;;;6.00;4.30;;;;;;;;;;1742190;28;20202;-77
2023/12/31 07:17:19;;;;;;;4.00;3.70;;;;;;;;;;1744339;28;20765;-77
2023/12/31 07:18:12;;;;;;;3.72;3.40;;;;;;;;;;1749281;28;20593;-77
2023/12/31 07:19:04;;;;;;;6.65;3.38;;;;;;;;;;1747694;28;20206;-77
2023/12/31 07:19:55;;;;;;;3.72;3.42;;;;;;;;;;1739207;28;20207;-77
2023/12/31 07:20:49;;;;;;;3.90;3.60;;;;;;;;;;1744952;28;20198;-77
2023/12/31 07:21:40;;;;;;;4.95;3.75;;;;;;;;;;1743563;28;20267;-78
2023/12/31 07:22:31;;;;;;;3.10;2.90;;;;;;;;;;1745128;28;20202;-79
2023/12/31 07:23:23;;;;;;;2.90;2.60;;;;;;;;;;1745328;28;20202;-79
2023/12/31 07:24:15;;;;;;;3.08;2.80;;;;;;;;;;1750249;28;20213;-79
2023/12/31 07:25:08;;;;;;;2.40;2.17;;;;;;;;;;1745814;28;20206;-79
2023/12/31 07:25:59;;;;;;;3.20;2.90;;;;;;;;;;1742859;28;20329;-79
2023/12/31 07:26:50;;;;;;;2.90;2.60;;;;;;;;;;1742373;28;20218;-79
2023/12/31 07:27:42;;;;;;;3.15;2.60;;;;;;;;;;1742354;28;20227;-79
2023/12/31 07:28:33;;;;;;;3.42;2.83;;;;;;;;;;1742751;28;20214;-79
2023/12/31 07:29:25;;;;;;;3.20;2.78;;;;;;;;;;1749607;28;20198;-79
2023/12/31 07:30:17;;;;;;;3.05;2.85;;;;;;;;;;1750017;28;20248;-77
2023/12/31 07:31:08;;;;;;;2.63;2.42;;;;;;;;;;1743497;28;20259;-77
2023/12/31 07:32:00;;;;;;;3.15;2.03;;;;;;;;;;1743323;28;20249;-79
2023/12/31 07:32:51;;;;;;;3.85;2.60;;;;;;;;;;1746420;28;20205;-76
2023/12/31 07:33:43;;;;;;;2.55;2.35;;;;;;;;;;1748453;28;20233;-77
2023/12/31 07:34:36;;;;;;;2.60;2.40;;;;;;;;;;1745123;28;20218;-76
2023/12/31 07:35:27;;;;;;;2.40;2.20;;;;;;;;;;1741661;28;20203;-76
2023/12/31 07:36:18;;;;;;;2.60;2.40;;;;;;;;;;1742808;28;20293;-76
2023/12/31 07:37:10;;;;;;;3.15;2.85;;;;;;;;;;1742009;28;20667;-78
2023/12/31 07:38:01;;;;;;;2.80;2.42;;;;;;;;;;1741519;28;20584;-77
2023/12/31 07:38:53;;;;;;;2.50;2.30;;;;;;;;;;1740847;28;20660;-77
2023/12/31 07:39:44;;;;;;;4.03;2.53;;;;;;;;;;1741523;28;20582;-76
2023/12/31 07:40:36;;;;;;;2.78;2.58;;;;;;;;;;1744227;28;20195;-77
2023/12/31 07:41:27;;;;;;;3.35;2.67;;;;;;;;;;1743038;28;20257;-77
2023/12/31 07:42:19;;;;;;;3.15;2.85;;;;;;;;;;1741671;28;20261;-77
2023/12/31 07:43:11;;;;;;;2.72;2.53;;;;;;;;;;1741529;28;20219;-77
2023/12/31 07:44:02;;;;;;;4.28;2.63;;;;;;;;;;1744322;28;20215;-76
2023/12/31 07:44:54;;;;;;;3.00;2.72;;;;;;;;;;1748405;28;20194;-76
2023/12/31 07:45:45;;;;;;;2.50;2.30;;;;;;;;;;1747175;28;20236;-76
2023/12/31 07:46:37;;;;;;;4.72;2.80;;;;;;;;;;1741554;28;20234;-76
2023/12/31 07:47:28;;;;;;;2.60;2.40;;;;;;;;;;1741648;28;20296;-77
2023/12/31 07:48:20;;;;;;;3.75;2.40;;;;;;;;;;1748002;28;20264;-77
2023/12/31 07:49:13;;;;;;;2.80;2.60;;;;;;;;;;1748498;28;20207;-76
2023/12/31 07:50:04;;;;;;;2.88;2.40;;;;;;;;;;1744275;28;20211;-77
2023/12/31 07:50:56;;;;;;;4.72;2.65;;;;;;;;;;1748342;28;20545;-76
2023/12/31 07:51:48;;;;;;;3.50;2.85;;;;;;;;;;1744495;28;20748;-76
2023/12/31 07:52:40;;;;;;;2.65;2.10;;;;;;;;;;1741661;28;20203;-76
2023/12/31 07:53:31;;;;;;;2.70;2.50;;;;;;;;;;1741657;28;20203;-76
2023/12/31 07:54:23;;;;;;;2.75;2.20;;;;;;;;;;1741545;28;20691;-76
2023/12/31 07:55:15;;;;;;;2.78;2.55;;;;;;;;;;1742446;28;20701;-76
2023/12/31 07:56:07;;;;;;;2.65;2.45;;;;;;;;;;1748387;28;20581;-76
2023/12/31 07:56:59;;;;;;;2.63;2.40;;;;;;;;;;1747756;28;20194;-76
2023/12/31 07:57:51;;;;;;;2.60;2.40;;;;;;;;;;1741841;28;20199;-77
2023/12/31 07:58:42;;;;;;;3.25;2.95;;;;;;;;;;1740857;28;20202;-77
2023/12/31 07:59:35;;;;;;;2.90;2.70;;;;;;;;;;1743081;28;20190;-76
2023/12/31 08:00:27;;;;;;;2.63;2.42;;;;;;;;;;1742407;28;20214;-77
2023/12/31 08:01:18;;;;;;;2.28;2.08;;;;;;;;;;1743616;28;20230;-77
2023/12/31 08:02:10;;;;;;;2.72;2.53;;;;;;;;;;1743514;28;20188;-77
2023/12/31 08:03:02;;;;;;;3.20;2.33;;;;;;;;;;1743343;28;20733;-77
2023/12/31 08:03:53;;;;;;;2.70;2.50;;;;;;;;;;1745575;28;20274;-77
2023/12/31 08:04:46;;;;;;;3.10;2.80;;;;;;;;;;1745221;28;20710;-76
2023/12/31 08:05:37;;;;;;;2.55;2.35;;;;;;;;;;1745607;28;20214;-77
2023/12/31 08:06:29;;;;;;;3.15;2.72;;;;;;;;;;1743210;28;20191;-76
2023/12/31 08:07:20;;;;;;;2.72;2.53;;;;;;;;;;1742616;28;20203;-77
2023/12/31 08:08:12;;;;;;;3.08;2.80;;;;;;;;;;1745523;28;20197;-77
2023/12/31 08:09:04;;;;;;;2.83;2.60;;;;;;;;;;1744853;28;20194;-77
2023/12/31 08:09:55;;;;;;;3.20;2.60;;;;;;;;;;1744237;28;20203;-76
2023/12/31 08:10:46;;;;;;;3.58;2.85;;;;;;;;;;1744808;28;20195;-78
2023/12/31 08:11:39;;;;;;;3.05;2.58;;;;;;;;;;1745506;28;20699;-77
2023/12/31 08:12:30;;;;;;;2.65;2.35;;;;;;;;;;1744764;28;20209;-77
2023/12/31 08:13:21;;;;;;;2.22;2.08;;;;;;;;;;1744739;28;20198;-76
2023/12/31 08:14:13;;;;;;;2.50;2.30;;;;;;;;;;1743961;28;20210;-76
2023/12/31 08:15:05;;;;;;;2.97;2.30;;;;;;;;;;1744411;28;20195;-75
2023/12/31 08:15:57;;;;;;;2.55;2.30;;;;;;;;;;1743425;28;20198;-76
2023/12/31 08:16:48;;;;;;;3.55;2.70;;;;;;;;;;1744668;28;20198;-76
2023/12/31 08:17:41;;;;;;;2.72;2.10;;;;;;;;;;1744199;28;20241;-76
2023/12/31 08:18:34;;;;;;;4.13;2.50;;;;;;;;;;1742728;28;20723;-76
2023/12/31 08:19:26;;;;;;;2.45;2.20;;;;;;;;;;1744782;28;20221;-77
2023/12/31 08:20:18;;;;;;;2.75;2.40;;;;;;;;;;1745169;28;20568;-77
2023/12/31 08:21:11;;;;;;;2.50;2.30;;;;;;;;;;1744145;28;20243;-76
2023/12/31 08:22:02;;;;;;;2.40;2.15;;;;;;;;;;1743540;28;20328;-77
2023/12/31 08:22:54;;;;;;;2.38;2.17;;;;;;;;;;1745497;28;20191;-77
2023/12/31 08:23:46;;;;;;;2.90;2.70;;;;;;;;;;1744596;28;20261;-76
2023/12/31 08:24:37;;;;;;;2.33;2.13;;;;;;;;;;1741789;28;20600;-77
2023/12/31 08:25:28;;;;;;;2.70;2.30;;;;;;;;;;1741514;28;20256;-77
2023/12/31 08:26:20;;;;;;;2.42;2.22;;;;;;;;;;1741473;28;20203;-78
2023/12/31 08:27:11;;;;;;;2.45;2.25;;;;;;;;;;1742836;28;20214;-77
2023/12/31 08:28:03;;;;;;;4.95;2.22;;;;;;;;;;1744141;28;20210;-79
2023/12/31 08:28:55;;;;;;;3.00;2.47;;;;;;;;;;1741863;28;20202;-79
2023/12/31 08:29:46;;;;;;;2.78;2.20;;;;;;;;;;1742200;28;20222;-79
2023/12/31 08:30:38;;;;;;;2.45;2.25;;;;;;;;;;1742089;28;20261;-78
2023/12/31 08:31:29;;;;;;;2.58;2.38;;;;;;;;;;1743328;28;20227;-78
2023/12/31 08:32:20;;;;;;;3.20;2.58;;;;;;;;;;1747836;28;20202;-77
2023/12/31 08:33:12;;;;;;;3.05;2.47;;;;;;;;;;1742821;28;20202;-78
2023/12/31 08:34:03;;;;;;;3.35;2.75;;;;;;;;;;1742544;28;20581;-78
2023/12/31 08:34:56;;;;;;;3.15;2.42;;;;;;;;;;1742138;28;20199;-80
2023/12/31 08:35:48;;;;;;;3.00;2.70;;;;;;;;;;1747623;28;20568;-77
2023/12/31 08:36:39;;;;;;;3.00;2.70;;;;;;;;;;1749560;28;20285;-82
2023/12/31 08:37:31;;;;;;;2.33;2.05;;;;;;;;;;1746396;28;20199;-82
2023/12/31 08:38:22;;;;;;;2.55;2.28;;;;;;;;;;1743735;28;20697;-81
2023/12/31 08:39:15;;;;;;;3.85;2.80;;;;;;;;;;1745530;28;20248;-81
2023/12/31 08:40:07;;;;;;;2.90;2.42;;;;;;;;;;1746385;28;20202;-81
2023/12/31 08:41:00;;;;;;;2.97;2.70;;;;;;;;;;1746516;28;20255;-81
2023/12/31 08:41:51;;;;;;;2.67;2.47;;;;;;;;;;1743383;28;20199;-81
2023/12/31 08:42:43;;;;;;;2.67;2.25;;;;;;;;;;1743510;28;20207;-82
2023/12/31 08:43:34;;;;;;;2.60;2.40;;;;;;;;;;1743555;28;20235;-82
2023/12/31 08:44:26;;;;;;;2.85;2.65;;;;;;;;;;1743277;28;20257;-81
2023/12/31 08:45:17;;;;;;;2.17;2.00;;;;;;;;;;1743301;28;20226;-81
2023/12/31 08:46:10;;;;;;;3.20;2.10;;;;;;;;;;1742319;28;20241;-77
2023/12/31 08:47:01;;;;;;;2.25;2.05;;;;;;;;;;1741807;28;20206;-77
2023/12/31 08:47:52;;;;;;;2.53;2.20;;;;;;;;;;1741579;28;20195;-77
2023/12/31 08:48:44;;;;;;;3.30;2.08;;;;;;;;;;1741171;28;20206;-78
2023/12/31 08:49:35;;;;;;;3.38;2.60;;;;;;;;;;1741644;28;20199;-77
2023/12/31 08:50:29;;;;;;;2.97;2.30;;;;;;;;;;1741457;28;20223;-77
2023/12/31 08:51:21;;;;;;;2.30;2.10;;;;;;;;;;1741642;28;20258;-79
2023/12/31 08:52:13;;;;;;;2.40;2.20;;;;;;;;;;1742427;28;20213;-78
2023/12/31 08:53:04;;;;;;;2.10;1.80;;;;;;;;;;1742568;28;20211;-77
2023/12/31 08:53:56;;;;;;;2.35;2.15;;;;;;;;;;1741908;28;20553;-79
2023/12/31 08:54:47;;;;;;;2.50;2.30;;;;;;;;;;1741638;28;20203;-79
2023/12/31 08:55:39;;;;;;;3.70;3.35;;;;;;;;;;1741378;28;20659;-78
2023/12/31 08:56:31;;;;;;;4.07;2.50;;;;;;;;;;1741468;28;20210;-78
2023/12/31 08:57:22;;;;;;;2.55;2.35;;;;;;;;;;1741448;28;20203;-77
2023/12/31 08:58:13;;;;;;;3.35;2.33;;;;;;;;;;1741534;28;20273;-77
2023/12/31 08:59:05;;;;;;;3.15;2.85;;;;;;;;;;1741130;28;20203;-78
2023/12/31 08:59:56;;;;;;;3.35;2.95;;;;;;;;;;1741575;28;20225;-78
2023/12/31 09:00:47;;;;;;;3.38;2.58;;;;;;;;;;1741348;28;20264;-78
2023/12/31 09:01:39;;;;;;;2.50;2.30;;;;;;;;;;1741400;28;20215;-78
2023/12/31 09:02:30;;;;;;;3.38;2.30;;;;;;;;;;1741514;28;20233;-79
2023/12/31 09:03:21;;;;;;;2.75;2.55;;;;;;;;;;1741526;28;20318;-78
2023/12/31 09:04:13;;;;;;;3.50;3.20;;;;;;;;;;1741687;28;20679;-79
2023/12/31 09:05:05;;;;;;;2.80;2.60;;;;;;;;;;1741580;28;20210;-78
2023/12/31 09:05:56;;;;;;;3.20;2.90;;;;;;;;;;1741504;28;20210;-78
2023/12/31 09:06:49;;;;;;;2.97;2.78;;;;;;;;;;1741813;28;20199;-79
2023/12/31 09:07:40;;;;;;;3.67;3.38;;;;;;;;;;1741536;28;20206;-80
2023/12/31 09:08:32;;;;;;;3.58;3.28;;;;;;;;;;1741192;28;20226;-79
2023/12/31 09:09:24;;;;;;;4.25;3.40;;;;;;;;;;1741264;28;20203;-77
2023/12/31 09:10:15;;;;;;;3.28;2.70;;;;;;;;;;1741538;28;20252;-79
2023/12/31 09:11:07;;;;;;;3.20;2.90;;;;;;;;;;1741417;28;20207;-78
2023/12/31 09:11:58;;;;;;;3.65;2.85;;;;;;;;;;1741511;28;20214;-78
2023/12/31 09:12:49;;;;;;;2.92;2.63;;;;;;;;;;1741549;28;20202;-77
2023/12/31 09:13:41;;;;;;;2.58;2.33;;;;;;;;;;1741156;28;20202;-78
2023/12/31 09:14:32;;;;;;;2.70;2.50;;;;;;;;;;1741278;28;20221;-78
2023/12/31 09:15:23;;;;;;;2.28;2.08;;;;;;;;;;1741281;28;20620;-78
2023/12/31 09:16:15;;;;;;;3.00;2.30;;;;;;;;;;1741429;28;20219;-79
2023/12/31 09:17:07;;;;;;;2.42;1.95;;;;;;;;;;1741288;28;20672;-77
2023/12/31 09:18:00;;;;;;;1.75;1.65;;;;;;;;;;1741423;28;20199;-79
2023/12/31 09:18:51;;;;;;;2.20;2.00;;;;;;;;;;1741282;28;20211;-78
2023/12/31 09:19:42;;;;;;;1.80;1.70;;;;;;;;;;1741316;28;20296;-78
2023/12/31 09:20:34;;;;;;;1.90;1.70;;;;;;;;;;1741195;28;20199;-77
2023/12/31 09:21:26;;;;;;;2.72;2.08;;;;;;;;;;1740935;28;20317;-77
2023/12/31 09:22:18;;;;;;;1.88;1.40;;;;;;;;;;1741069;28;20667;-76
2023/12/31 09:23:11;;;;;;;1.85;1.75;;;;;;;;;;1740911;28;20343;-76
2023/12/31 09:24:02;;;;;;;2.63;1.98;;;;;;;;;;1740688;28;20202;-77
2023/12/31 09:24:53;;;;;;;2.40;1.63;;;;;;;;;;1741002;28;20281;-76
2023/12/31 09:25:45;;;;;;;2.08;1.90;;;;;;;;;;1741058;28;20198;-76
2023/12/31 09:26:36;;;;;;;2.28;1.40;;;;;;;;;;1740785;28;20202;-76
2023/12/31 09:27:27;;;;;;;2.30;1.50;;;;;;;;;;1740841;28;20284;-76
2023/12/31 09:28:19;;;;;;;1.58;1.48;;;;;;;;;;1740831;28;20619;-77
2023/12/31 09:29:10;;;;;;;2.00;1.80;;;;;;;;;;1740789;28;20249;-77
2023/12/31 09:30:01;;;;;;;1.67;1.58;;;;;;;;;;1740970;28;20236;-76
2023/12/31 09:30:53;;;;;;;2.28;2.08;;;;;;;;;;1740901;28;20252;-77
2023/12/31 09:31:45;;;;;;;1.60;1.50;;;;;;;;;;1741127;28;20205;-76
2023/12/31 09:32:36;;;;;;;1.60;1.50;;;;;;;;;;1741083;28;20195;-76
2023/12/31 09:33:28;;;;;;;1.63;1.52;;;;;;;;;;1741000;28;20551;-76
2023/12/31 09:34:19;;;;;;;1.90;1.60;;;;;;;;;;1741087;28;20560;-76
2023/12/31 09:35:10;;;;;;;1.63;1.50;;;;;;;;;;1741064;28;20257;-74
2023/12/31 09:36:04;;;;;;;1.73;1.60;;;;;;;;;;1740950;28;20207;-75
2023/12/31 09:36:55;;;;;;;1.85;1.60;;;;;;;;;;1740935;28;20766;-75
2023/12/31 09:37:49;;;;;;;1.98;1.85;;;;;;;;;;1740622;28;20196;-75
2023/12/31 09:38:40;;;;;;;2.42;2.22;;;;;;;;;;1747563;28;20213;-76
2023/12/31 09:39:31;;;;;;;1.95;1.70;;;;;;;;;;1747856;28;20198;-75
2023/12/31 09:40:23;;;;;;;3.40;2.00;;;;;;;;;;1747912;28;20199;-76
2023/12/31 09:41:17;;;;;;;2.45;2.25;;;;;;;;;;1747801;28;20234;-75
2023/12/31 09:42:11;;;;;;;3.28;2.13;;;;;;;;;;1744964;28;20199;-76
2023/12/31 09:43:03;;;;;;;3.58;2.58;;;;;;;;;;1745378;28;20198;-76
2023/12/31 09:43:55;;;;;;;2.40;2.20;;;;;;;;;;1746167;28;20279;-76
2023/12/31 09:44:47;;;;;;;3.08;2.80;;;;;;;;;;1740987;28;20206;-75
2023/12/31 09:45:40;;;;;;;5.20;2.75;;;;;;;;;;1740932;28;20199;-76
2023/12/31 09:46:33;;;;;;;3.50;2.60;;;;;;;;;;1740911;28;20207;-75
2023/12/31 09:47:25;;;;;;;4.22;3.25;;;;;;;;;;1740898;28;20206;-76
2023/12/31 09:48:17;;;;;;;2.45;2.22;;;;;;;;;;1742923;28;20252;-75
2023/12/31 09:49:08;;;;;;;3.45;2.80;;;;;;;;;;1740788;28;20688;-76
2023/12/31 09:49:59;;;;;;;3.00;2.70;;;;;;;;;;1743872;28;20198;-76
2023/12/31 09:50:52;;;;;;;3.65;2.75;;;;;;;;;;1744939;28;20203;-75
2023/12/31 09:51:43;;;;;;;2.60;2.20;;;;;;;;;;1743749;28;20225;-76
2023/12/31 09:52:34;;;;;;;2.20;2.00;;;;;;;;;;1743677;28;20297;-75
2023/12/31 09:53:28;;;;;;;2.35;2.15;;;;;;;;;;1742644;28;20198;-77
2023/12/31 09:54:21;;;;;;;2.92;2.50;;;;;;;;;;1744361;28;20195;-77
2023/12/31 09:55:13;;;;;;;2.85;2.53;;;;;;;;;;1742667;28;20207;-75
2023/12/31 09:56:06;;;;;;;2.80;2.45;;;;;;;;;;1746684;28;20202;-76
2023/12/31 09:56:57;;;;;;;2.25;2.00;;;;;;;;;;1746923;28;20199;-76
2023/12/31 09:57:49;;;;;;;3.65;2.10;;;;;;;;;;1742790;28;20206;-76
2023/12/31 09:58:41;;;;;;;2.70;2.13;;;;;;;;;;1747517;28;20202;-75
2023/12/31 09:59:32;;;;;;;2.90;2.60;;;;;;;;;;1740914;28;20199;-76
2023/12/31 10:00:24;;;;;;;3.65;2.50;;;;;;;;;;1742444;28;20198;-76
2023/12/31 10:01:15;;;;;;;3.05;2.72;;;;;;;;;;1745184;28;20721;-77
2023/12/31 10:02:07;;;;;;;3.30;2.95;;;;;;;;;;1747485;28;20191;-76
2023/12/31 10:02:59;;;;;;;3.95;3.58;;;;;;;;;;1744520;28;20571;-78
2023/12/31 10:03:50;;;;;;;3.70;3.40;;;;;;;;;;1744655;28;20218;-76
2023/12/31 10:04:41;;;;;;;5.10;3.70;;;;;;;;;;1744372;28;20199;-76
2023/12/31 10:05:34;;;;;;;4.28;3.90;;;;;;;;;;1740564;28;20198;-76
2023/12/31 10:06:25;;;;;;;4.65;3.33;;;;;;;;;;1743461;28;21919;-77
2023/12/31 10:07:16;;;;;;;4.15;3.45;;;;;;;;;;1744974;28;20238;-76
2023/12/31 10:08:09;;;;;;;4.15;3.60;;;;;;;;;;1744514;28;20674;-76
2023/12/31 10:09:02;;;;;;;3.97;3.67;;;;;;;;;;1742295;28;20692;-75
2023/12/31 10:09:54;;;;;;;4.88;4.10;;;;;;;;;;1746984;28;20271;-76
2023/12/31 10:10:46;;;;;;;3.95;3.65;;;;;;;;;;1744225;28;20733;-74
2023/12/31 10:11:37;;;;;;;4.30;3.90;;;;;;;;;;1744016;28;20215;-77
2023/12/31 10:12:29;;;;;;;4.55;4.15;;;;;;;;;;1747145;28;20234;-76
2023/12/31 10:13:20;;;;;;;5.82;3.40;;;;;;;;;;1747417;28;20191;-75
2023/12/31 10:14:12;;;;;;;4.93;3.50;;;;;;;;;;1747587;28;20272;-75
2023/12/31 10:15:07;;;;;;;4.88;3.60;;;;;;;;;;1740867;28;20200;-77
2023/12/31 10:15:58;;;;;;;4.00;3.60;;;;;;;;;;1740844;28;20294;-76
2023/12/31 10:16:50;;;;;;;4.40;4.00;;;;;;;;;;1746553;28;20206;-75
2023/12/31 10:17:41;;;;;;;3.53;3.22;;;;;;;;;;1747680;28;20221;-76
2023/12/31 10:18:33;;;;;;;4.00;3.70;;;;;;;;;;1742874;28;20613;-76
2023/12/31 10:19:24;;;;;;;3.47;3.17;;;;;;;;;;1743448;28;20203;-75
2023/12/31 10:20:17;;;;;;;5.10;3.67;;;;;;;;;;1745887;28;20256;-76
2023/12/31 10:21:09;;;;;;;3.65;3.28;;;;;;;;;;1744740;28;20198;-75
2023/12/31 10:22:00;;;;;;;5.15;2.60;;;;;;;;;;1748282;28;20194;-76
2023/12/31 10:22:52;;;;;;;3.25;3.05;;;;;;;;;;1748960;28;20205;-75
2023/12/31 10:23:44;;;;;;;5.18;2.95;;;;;;;;;;1748770;28;20213;-75
2023/12/31 10:24:37;;;;;;;3.78;2.88;;;;;;;;;;1742091;28;20207;-75
2023/12/31 10:25:28;;;;;;;3.75;2.67;;;;;;;;;;1742013;28;20274;-76
2023/12/31 10:26:19;;;;;;;2.75;2.28;;;;;;;;;;1742129;28;20206;-76
2023/12/31 10:27:13;;;;;;;3.20;2.90;;;;;;;;;;1742030;28;20222;-78
2023/12/31 10:28:04;;;;;;;2.58;2.17;;;;;;;;;;1744900;28;20206;-75
2023/12/31 10:28:56;;;;;;;2.55;2.35;;;;;;;;;;1748395;28;20248;-75
2023/12/31 10:29:48;;;;;;;3.05;2.50;;;;;;;;;;1746731;28;20211;-76
2023/12/31 10:30:40;;;;;;;2.80;2.55;;;;;;;;;;1743365;28;20195;-77
2023/12/31 10:31:31;;;;;;;3.08;2.78;;;;;;;;;;1748547;28;20214;-76
2023/12/31 10:32:22;;;;;;;4.65;2.20;;;;;;;;;;1748990;28;20208;-77
2023/12/31 10:33:15;;;;;;;2.70;2.50;;;;;;;;;;1750029;28;20285;-79
2023/12/31 10:34:15;;;;;;;2.83;2.58;;;;;;;;;;1749473;28;20659;-81
2023/12/31 10:35:08;;;;;;;3.30;2.95;;;;;;;;;;1749610;28;20218;-77
2023/12/31 10:36:03;;;;;;;3.28;2.85;;;;;;;;;;1742799;28;20604;-79
2023/12/31 10:37:03;;;;;;;3.13;2.63;;;;;;;;;;1742431;28;20281;-77
2023/12/31 10:38:03;;;;;;;3.38;3.00;;;;;;;;;;1742567;28;20268;-78
2023/12/31 10:38:55;;;;;;;3.30;2.80;;;;;;;;;;1741843;28;20652;-76
2023/12/31 10:39:48;;;;;;;3.63;2.70;;;;;;;;;;1749088;28;20626;-77
2023/12/31 10:40:40;;;;;;;2.90;2.60;;;;;;;;;;1748516;28;20202;-80
2023/12/31 10:41:37;;;;;;;3.63;3.33;;;;;;;;;;1749253;28;20228;-79
2023/12/31 10:42:29;;;;;;;4.20;2.85;;;;;;;;;;1750240;28;20226;-78
2023/12/31 10:43:21;;;;;;;3.42;3.13;;;;;;;;;;1744675;28;20580;-77
2023/12/31 10:44:13;;;;;;;3.90;3.47;;;;;;;;;;1742294;28;20721;-77
2023/12/31 10:45:05;;;;;;;3.58;2.85;;;;;;;;;;1742090;28;20265;-76
2023/12/31 10:45:58;;;;;;;3.38;3.08;;;;;;;;;;1743741;28;20235;-77
2023/12/31 10:46:51;;;;;;;2.95;2.75;;;;;;;;;;1743848;28;20202;-77
2023/12/31 10:47:45;;;;;;;4.50;3.50;;;;;;;;;;1748777;28;20220;-76
2023/12/31 10:48:39;;;;;;;4.60;4.20;;;;;;;;;;1746508;28;20282;-76
2023/12/31 10:49:32;;;;;;;4.57;4.07;;;;;;;;;;1748377;28;20205;-75
2023/12/31 10:50:23;;;;;;;4.50;3.92;;;;;;;;;;1748824;28;20209;-76
2023/12/31 10:51:18;;;;;;;4.10;3.58;;;;;;;;;;1741842;28;21016;-75
2023/12/31 10:52:13;;;;;;;4.32;3.90;;;;;;;;;;1742393;28;20687;-76
2023/12/31 10:53:08;;;;;;;5.15;4.22;;;;;;;;;;1748328;28;20202;-76
2023/12/31 10:54:01;;;;;;;6.10;4.70;;;;;;;;;;1748830;28;20206;-77
2023/12/31 10:54:54;;;;;;;4.38;3.97;;;;;;;;;;1743270;28;20256;-76
2023/12/31 10:55:47;;;;;;;4.05;3.65;;;;;;;;;;1742057;28;20203;-76
2023/12/31 10:56:40;;;;;;;4.63;4.22;;;;;;;;;;1747330;28;20195;-78
2023/12/31 10:57:31;;;;;;;4.20;3.90;;;;;;;;;;1749100;28;20191;-77
2023/12/31 10:58:24;;;;;;;4.00;3.55;;;;;;;;;;1745506;28;20713;-78
2023/12/31 10:59:16;;;;;;;4.10;3.70;;;;;;;;;;1746543;28;20206;-77
2023/12/31 11:00:09;;;;;;;4.75;4.20;;;;;;;;;;1747254;28;20190;-77
2023/12/31 11:01:02;;;;;;;5.15;3.83;;;;;;;;;;1742320;28;20187;-78
2023/12/31 11:01:53;;;;;;;5.63;4.15;;;;;;;;;;1742014;28;20210;-77
2023/12/31 11:02:45;;;;;;;4.60;4.20;;;;;;;;;;1742305;28;20195;-79
2023/12/31 11:03:38;;;;;;;4.72;4.30;;;;;;;;;;1742817;28;20285;-78
2023/12/31 11:04:30;;;;;;;5.40;4.35;;;;;;;;;;1743267;28;20714;-78
2023/12/31 11:05:22;;;;;;;5.00;4.50;;;;;;;;;;1742454;28;20714;-78
2023/12/31 11:06:14;;;;;;;4.30;3.90;;;;;;;;;;1741942;28;20195;-76
2023/12/31 11:07:05;;;;;;;4.70;4.30;;;;;;;;;;1745048;28;20285;-79
2023/12/31 11:07:57;;;;;;;5.70;5.13;;;;;;;;;;1747351;28;20198;-78
2023/12/31 11:08:50;;;;;;;4.90;4.50;;;;;;;;;;1745467;28;20187;-80
2023/12/31 11:09:42;;;;;;;5.97;4.30;;;;;;;;;;1748998;28;20252;-79
2023/12/31 11:10:35;;;;;;;4.45;4.05;;;;;;;;;;1741887;28;20199;-77
2023/12/31 11:11:27;;;;;;;4.38;3.97;;;;;;;;;;1748318;28;20745;-79